Accueil
METAR-TAF:

METAR-TAF

Aéroports :

Base aérienne de Chièvres

Chièvres, Belgique

latitude: 50-34N, longitude: 003-50E, altitude: 60 m

Observation

Le bulletin a été fait il y a 45 minutes, à 15:55 UTC
Vent 6 kt de est/sud-est
Température 6°C
Humidité 87%
Pression 1001 hPa
Visibilité 10 km ou plus

METAR: EBCV 141555Z AUTO 11006KT 9999 BKN041/// 06/04 Q1001 BLU

Heure: 17:40 (16:40 UTC)

Prévision

Le bulletin a été fait il y a 4 heures et 59 minutes, à 11:41 UTC
Prévision valable du 14 à 13 UTC au 14 à 22 UTC
Vent 6 kt de sud
Visibilité 10 km ou plus
Nuages épars à une hauteur de 1500 ft
Nuages fragmentés à une hauteur de 3000 ft
Evoluant progressivement
du 14 à 16 UTC au 14 à 18 UTC
Vent 4 kt de est
Quelques nuages à une hauteur de 2000 ft
Nuages fragmentés à une hauteur de 12000 ft

TAF: EBCV 141141Z 1413/1422 17006KT 9999 SCT015 BKN030 BECMG 1416/1418 09004KT FEW020 BKN120 BY EBWM

Observations et prévisions météorologiques de plus de 4000 aéroports (messages METAR et TAF).

Les stations disponibles sont représentées par des disques jaunes et rouges sur la carte.

Passer la souris dessus pour voir le nom de la station.

Cliquer dessus pour voir les observations et prévisions météorologiques.

Pour changer de carte: cliquez sur les boutons verts avec une croix noire pour zoomer, sur le bouton vert avec un tiret pour effectuer un zoom arrière, ou sur les flèches vertes pour les cartes adjacentes.


METAR-TAF: